Time;durP1;ratioP1;P1;durP2;ratioP2;P2;SDS_P1;SDS_P2;PMS_P1;PMS_P2;Temp;Humidity;BMP_temperature;BMP_pressure;BME280_temperature;BME280_humidity;BME280_pressure;Samples;Min_cycle;Max_cycle;Signal;HPM_P1;HPM_P2
2022/12/30 05:36:13;;;;;;;7.78;6.78;;;21.90;73.50;;;;;;6168960;28;85243;-96
2022/12/30 05:39:15;;;;;;;7.53;6.50;;;21.90;73.40;;;;;;6181638;28;83943;-96
2022/12/30 05:42:17;;;;;;;8.32;6.80;;;21.90;73.50;;;;;;6194421;28;85534;-96
2022/12/30 05:45:19;;;;;;;12.82;8.02;;;21.90;73.40;;;;;;6202408;28;82960;-96
2022/12/30 05:48:21;;;;;;;7.57;5.93;;;21.90;73.50;;;;;;6206285;28;83916;-96
2022/12/30 05:51:25;;;;;;;7.53;6.40;;;21.90;73.50;;;;;;6200875;28;83796;-96
2022/12/30 05:54:27;;;;;;;7.00;5.93;;;21.90;73.40;;;;;;6203633;28;82968;-96
2022/12/30 05:57:29;;;;;;;6.15;5.55;;;21.90;73.50;;;;;;6208846;28;84006;-96
2022/12/30 06:00:31;;;;;;;7.20;6.30;;;21.90;73.50;;;;;;6210602;28;84096;-96
2022/12/30 06:03:34;;;;;;;7.38;6.45;;;21.90;73.50;;;;;;6210069;28;85178;-96
2022/12/30 06:06:38;;;;;;;7.97;6.45;;;21.90;73.50;;;;;;6175406;28;83491;-95
2022/12/30 06:09:40;;;;;;;9.88;7.25;;;21.90;73.50;;;;;;6185347;28;83831;-96
2022/12/30 06:12:42;;;;;;;9.10;6.20;;;21.90;73.50;;;;;;6174736;28;83868;-96
2022/12/30 06:15:44;;;;;;;7.97;6.53;;;22.00;73.50;;;;;;6181695;28;83257;-96
2022/12/30 06:18:46;;;;;;;6.45;5.80;;;21.90;73.50;;;;;;6190068;28;84399;-96
2022/12/30 06:21:49;;;;;;;8.57;6.53;;;22.00;73.50;;;;;;6179211;28;82877;-96
2022/12/30 06:24:52;;;;;;;6.93;5.88;;;22.00;73.50;;;;;;6175172;28;85528;-96
2022/12/30 06:27:54;;;;;;;6.70;5.97;;;22.00;73.50;;;;;;6181827;28;84149;-95
2022/12/30 06:30:58;;;;;;;7.78;6.80;;;22.00;73.50;;;;;;6185824;28;84418;-96
2022/12/30 06:34:02;;;;;;;8.95;6.43;;;22.00;73.30;;;;;;6185221;28;84404;-95
2022/12/30 06:37:06;;;;;;;7.43;6.60;;;22.00;73.30;;;;;;6175765;28;84859;-96
2022/12/30 06:40:10;;;;;;;8.23;6.30;;;22.00;73.40;;;;;;6187682;28;84313;-96
2022/12/30 06:43:13;;;;;;;6.88;5.85;;;22.00;73.30;;;;;;6195853;28;83507;-96
2022/12/30 06:46:15;;;;;;;9.15;6.85;;;22.00;73.30;;;;;;6207953;28;82766;-96
2022/12/30 06:49:17;;;;;;;10.80;6.50;;;22.00;73.30;;;;;;6207153;28;84100;-96
2022/12/30 06:52:24;;;;;;;8.93;6.28;;;22.00;73.30;;;;;;6209890;28;84397;-96
2022/12/30 06:55:26;;;;;;;10.32;6.70;;;22.00;73.30;;;;;;6200026;28;86298;-96
2022/12/30 06:58:29;;;;;;;9.57;6.30;;;22.00;73.30;;;;;;6204990;28;82788;-96
2022/12/30 07:01:31;;;;;;;9.43;6.28;;;22.00;73.30;;;;;;6202129;28;84408;-96
2022/12/30 07:04:33;;;;;;;7.43;5.95;;;22.00;73.30;;;;;;6204016;28;85239;-96
2022/12/30 07:07:36;;;;;;;8.55;6.50;;;22.00;73.30;;;;;;6206061;28;83036;-95
2022/12/30 07:10:39;;;;;;;10.75;6.78;;;22.00;73.30;;;;;;6174700;28;84560;-96
2022/12/30 07:13:41;;;;;;;10.88;6.53;;;22.10;73.30;;;;;;6181978;28;84033;-95
2022/12/30 07:16:49;;;;;;;10.57;7.13;;;22.00;73.20;;;;;;6184945;28;83255;-96
2022/12/30 07:19:51;;;;;;;13.52;7.45;;;22.10;73.70;;;;;;6197191;28;85139;-95
2022/12/30 07:22:54;;;;;;;10.98;6.55;;;22.10;74.90;;;;;;6192628;28;84072;-96
2022/12/30 07:25:57;;;;;;;11.90;6.40;;;22.10;76.20;;;;;;6176941;28;84987;-96
2022/12/30 07:28:59;;;;;;;12.23;6.90;;;22.10;77.90;;;;;;6177388;28;84516;-96
2022/12/30 07:32:01;;;;;;;11.50;7.28;;;22.10;76.00;;;;;;6177364;28;84970;-96
2022/12/30 07:35:07;;;;;;;11.13;6.82;;;22.10;75.30;;;;;;6187504;28;84070;-95
2022/12/30 07:38:10;;;;;;;10.50;7.05;;;22.20;75.00;;;;;;6180294;28;85284;-95
2022/12/30 07:41:13;;;;;;;10.38;6.57;;;22.20;74.90;;;;;;6185593;28;83954;-96
2022/12/30 07:44:15;;;;;;;8.88;6.05;;;22.20;74.80;;;;;;6213887;28;84069;-94
2022/12/30 07:47:17;;;;;;;7.68;6.13;;;22.20;74.70;;;;;;6213893;28;82726;-96
2022/12/30 07:50:19;;;;;;;8.77;5.93;;;22.20;74.90;;;;;;6214172;28;84358;-96
2022/12/30 07:53:23;;;;;;;8.48;6.30;;;22.20;75.60;;;;;;6207836;28;82962;-96
2022/12/30 07:56:25;;;;;;;8.15;6.25;;;22.20;75.60;;;;;;6210622;28;85014;-96
2022/12/30 07:59:27;;;;;;;6.45;5.65;;;22.20;75.20;;;;;;6190831;28;85603;-96
2022/12/30 08:02:29;;;;;;;10.70;6.15;;;22.30;75.20;;;;;;6193860;28;83290;-96
2022/12/30 08:05:31;;;;;;;10.30;5.95;;;22.30;75.10;;;;;;6192152;28;82178;-96
2022/12/30 08:08:35;;;;;;;8.70;6.20;;;22.30;75.00;;;;;;6211642;28;82956;-96
2022/12/30 08:11:39;;;;;;;8.88;6.30;;;22.30;75.00;;;;;;6208330;28;82626;-96
2022/12/30 08:14:41;;;;;;;9.63;5.78;;;22.30;75.00;;;;;;6212284;28;83708;-96
2022/12/30 08:17:43;;;;;;;6.70;5.75;;;22.30;75.00;;;;;;6212696;28;83261;-96
2022/12/30 08:20:45;;;;;;;8.23;5.95;;;22.30;75.00;;;;;;6199345;28;84101;-96
2022/12/30 08:23:49;;;;;;;8.38;6.13;;;22.30;75.00;;;;;;6199744;28;84434;-96
2022/12/30 08:26:51;;;;;;;8.25;6.10;;;22.30;74.90;;;;;;6196754;28;85044;-96
2022/12/30 08:29:53;;;;;;;7.18;5.55;;;22.30;75.00;;;;;;6196475;28;82041;-96
2022/12/30 08:32:56;;;;;;;8.57;5.82;;;22.40;75.00;;;;;;6208445;28;84152;-96
2022/12/30 08:36:01;;;;;;;7.15;6.00;;;22.40;75.00;;;;;;6205912;28;82874;-96
2022/12/30 08:39:05;;;;;;;22.55;12.57;;;22.40;75.10;;;;;;6196588;28;84408;-96
2022/12/30 08:42:08;;;;;;;22.60;13.88;;;22.40;75.20;;;;;;6198947;28;84467;-96
2022/12/30 08:45:13;;;;;;;28.00;15.82;;;22.50;75.30;;;;;;6199712;28;84880;-96
2022/12/30 08:48:15;;;;;;;32.88;20.33;;;22.50;75.20;;;;;;6192636;28;82864;-96
2022/12/30 08:51:20;;;;;;;38.33;22.55;;;22.50;75.10;;;;;;6206009;28;85405;-95
2022/12/30 08:54:24;;;;;;;34.30;22.25;;;22.50;75.00;;;;;;6198842;28;83002;-96
2022/12/30 08:57:26;;;;;;;39.05;22.65;;;22.50;75.00;;;;;;6195259;28;83834;-95
2022/12/30 09:00:28;;;;;;;41.65;23.40;;;22.50;75.00;;;;;;6200443;28;84540;-96
2022/12/30 09:03:30;;;;;;;40.08;23.73;;;22.50;75.00;;;;;;6198001;28;84123;-96
2022/12/30 09:06:32;;;;;;;35.95;22.63;;;22.50;75.00;;;;;;6204693;28;85469;-96
2022/12/30 09:09:37;;;;;;;39.75;23.08;;;22.50;75.00;;;;;;6200868;28;83428;-96
2022/12/30 09:12:39;;;;;;;27.10;17.73;;;22.50;75.00;;;;;;6196765;28;84786;-96
2022/12/30 09:15:41;;;;;;;24.75;14.70;;;22.50;74.20;;;;;;6209585;28;82720;-96
2022/12/30 09:18:43;;;;;;;25.33;14.18;;;22.50;72.50;;;;;;6202944;28;82860;-96
2022/12/30 09:21:45;;;;;;;24.15;14.43;;;22.50;72.60;;;;;;6195021;28;84106;-96
2022/12/30 09:24:51;;;;;;;28.58;14.88;;;22.50;72.60;;;;;;6200863;28;85983;-96
2022/12/30 09:27:53;;;;;;;21.58;13.15;;;22.50;72.70;;;;;;6191780;28;84996;-96
2022/12/30 09:30:55;;;;;;;19.95;10.38;;;22.50;72.30;;;;;;6199367;28;84092;-96
2022/12/30 09:33:57;;;;;;;17.45;10.50;;;22.50;71.50;;;;;;6206102;28;83156;-96
2022/12/30 09:36:59;;;;;;;18.48;10.45;;;22.50;71.10;;;;;;6205320;28;84244;-96
2022/12/30 09:40:03;;;;;;;18.75;10.75;;;22.40;71.50;;;;;;6207145;28;84556;-96
2022/12/30 09:43:18;;;;;;;24.40;12.18;;;22.50;72.20;;;;;;6198621;28;84687;-96
2022/12/30 09:46:33;;;;;;;20.67;11.68;;;22.50;72.80;;;;;;6198570;28;84585;-96
2022/12/30 09:49:40;;;;;;;20.27;11.98;;;22.50;73.30;;;;;;6190894;28;84067;-96
2022/12/30 09:52:53;;;;;;;18.98;10.82;;;22.50;73.40;;;;;;6195656;28;84297;-96
2022/12/30 09:55:59;;;;;;;17.20;10.75;;;22.50;73.50;;;;;;6196518;28;85252;-96
2022/12/30 09:59:07;;;;;;;18.00;11.10;;;22.50;73.60;;;;;;6202797;28;84836;-95
2022/12/30 10:02:21;;;;;;;19.77;10.68;;;22.50;73.70;;;;;;6191493;28;83982;-95
2022/12/30 10:05:40;;;;;;;17.58;11.18;;;22.50;73.80;;;;;;6197722;28;84833;-96
2022/12/30 10:09:14;;;;;;;17.45;10.88;;;22.50;73.80;;;;;;6208034;28;84179;-96
2022/12/30 10:12:38;;;;;;;18.58;10.80;;;22.50;73.90;;;;;;6183497;28;85372;-96
2022/12/30 10:15:53;;;;;;;17.05;10.93;;;22.50;73.90;;;;;;6204436;28;85468;-96
2022/12/30 10:19:10;;;;;;;15.23;10.20;;;22.60;74.00;;;;;;6201149;28;85999;-96
2022/12/30 10:22:23;;;;;;;15.65;9.90;;;22.60;74.00;;;;;;6207420;28;83290;-96
2022/12/30 10:25:29;;;;;;;16.33;9.82;;;22.60;74.00;;;;;;6190734;28;83908;-95
2022/12/30 10:28:38;;;;;;;15.60;10.10;;;22.60;74.00;;;;;;6198186;28;82884;-96
2022/12/30 10:31:44;;;;;;;17.08;10.93;;;22.60;74.00;;;;;;6198966;28;85159;-96
2022/12/30 10:34:47;;;;;;;14.75;9.43;;;22.60;74.10;;;;;;6209150;28;83640;-95
2022/12/30 10:37:54;;;;;;;17.75;9.95;;;22.60;74.00;;;;;;6199856;28;84152;-96
2022/12/30 10:41:05;;;;;;;15.75;9.52;;;22.70;74.00;;;;;;6198043;28;82488;-96
2022/12/30 10:44:18;;;;;;;14.23;8.57;;;22.70;74.00;;;;;;6208816;28;84475;-96
2022/12/30 10:47:37;;;;;;;13.43;8.35;;;22.70;74.00;;;;;;6208689;28;84229;-96
2022/12/30 10:50:43;;;;;;;14.60;8.95;;;22.70;74.00;;;;;;6196843;28;84100;-96
2022/12/30 10:53:47;;;;;;;14.05;8.90;;;22.70;74.00;;;;;;6202916;28;82156;-96
2022/12/30 10:56:50;;;;;;;16.42;9.15;;;22.70;74.00;;;;;;6212638;28;84219;-96
2022/12/30 10:59:56;;;;;;;14.75;8.80;;;22.70;74.10;;;;;;6214013;28;83131;-96
2022/12/30 11:03:04;;;;;;;12.95;8.82;;;22.70;74.20;;;;;;6207599;28;84307;-96
2022/12/30 11:06:22;;;;;;;12.43;8.23;;;22.70;74.20;;;;;;6213354;28;82769;-96
2022/12/30 11:09:24;;;;;;;12.35;8.60;;;22.70;74.20;;;;;;6192811;28;83802;-96
2022/12/30 11:15:56;;;;;;;12.38;8.00;;;22.70;74.30;;;;;;6208023;28;82291;-96
2022/12/30 11:19:03;;;;;;;12.25;8.05;;;22.70;74.30;;;;;;6206195;28;82723;-96
2022/12/30 11:22:05;;;;;;;11.63;8.00;;;22.70;74.30;;;;;;6192608;28;84084;-96
2022/12/30 11:25:17;;;;;;;11.85;7.93;;;22.70;74.40;;;;;;6199386;28;83172;-96
2022/12/30 11:28:26;;;;;;;12.15;7.82;;;22.70;74.30;;;;;;6210363;28;83990;-96
2022/12/30 11:31:36;;;;;;;13.60;8.30;;;22.70;74.40;;;;;;6197728;28;83854;-96
2022/12/30 11:34:40;;;;;;;12.35;8.00;;;22.70;74.30;;;;;;6191448;28;83906;-96
2022/12/30 11:37:45;;;;;;;11.75;7.63;;;22.70;74.40;;;;;;6211015;28;84187;-96
2022/12/30 11:40:47;;;;;;;8.93;6.75;;;22.70;74.40;;;;;;6200944;28;84357;-96
2022/12/30 11:43:51;;;;;;;8.45;6.45;;;22.70;74.40;;;;;;6195281;28;84109;-96
2022/12/30 11:46:57;;;;;;;9.40;7.03;;;22.60;74.40;;;;;;6201186;28;83499;-96
2022/12/30 11:49:59;;;;;;;10.00;6.90;;;22.70;74.40;;;;;;6201368;28;83165;-96
2022/12/30 11:53:03;;;;;;;10.07;6.63;;;22.70;74.40;;;;;;6201717;28;84193;-96
2022/12/30 11:56:06;;;;;;;8.52;5.93;;;22.70;74.40;;;;;;6212730;28;83075;-96
2022/12/30 11:59:10;;;;;;;9.55;6.68;;;22.70;74.40;;;;;;6193011;28;82795;-96
2022/12/30 12:02:22;;;;;;;9.48;6.68;;;22.70;74.40;;;;;;6213351;28;85692;-96
2022/12/30 12:05:29;;;;;;;8.90;6.20;;;22.70;74.40;;;;;;6199474;28;83842;-96
2022/12/30 12:08:34;;;;;;;9.75;6.57;;;22.70;74.40;;;;;;6213441;28;82876;-96
2022/12/30 12:11:43;;;;;;;8.70;6.03;;;22.70;74.50;;;;;;6212608;28;84318;-96
2022/12/30 12:15:05;;;;;;;8.40;6.18;;;22.70;74.40;;;;;;6187154;28;82874;-96
2022/12/30 12:18:15;;;;;;;8.93;5.90;;;22.70;74.50;;;;;;6198002;28;84368;-96
2022/12/30 12:21:23;;;;;;;7.97;5.88;;;22.70;74.40;;;;;;6212008;28;84201;-95
2022/12/30 12:24:30;;;;;;;8.52;6.05;;;22.70;74.40;;;;;;6211457;28;83015;-96
2022/12/30 12:27:32;;;;;;;7.22;5.53;;;22.70;74.50;;;;;;6212365;28;82551;-96
2022/12/30 12:30:53;;;;;;;7.70;5.82;;;22.70;74.40;;;;;;6209423;28;84103;-96
2022/12/30 12:34:06;;;;;;;7.32;5.78;;;22.70;74.40;;;;;;6190106;28;84810;-96
2022/12/30 12:37:24;;;;;;;7.05;5.47;;;22.70;74.40;;;;;;6195401;28;85490;-96
2022/12/30 12:40:49;;;;;;;12.85;5.80;;;22.70;74.40;;;;;;6196143;28;85350;-96
2022/12/30 12:44:17;;;;;;;6.90;5.25;;;22.70;74.40;;;;;;6208978;28;82839;-96
2022/12/30 12:47:36;;;;;;;6.50;4.95;;;22.70;74.40;;;;;;6201433;28;81962;-96
2022/12/30 12:50:54;;;;;;;7.18;5.28;;;22.70;74.40;;;;;;6200313;28;84033;-96
2022/12/30 12:54:21;;;;;;;8.52;5.10;;;22.70;74.50;;;;;;6209947;28;84386;-96
2022/12/30 12:57:32;;;;;;;7.38;5.55;;;22.70;74.50;;;;;;6200751;28;83260;-96
2022/12/30 13:00:48;;;;;;;8.10;5.43;;;22.70;74.40;;;;;;6205883;28;83058;-96
2022/12/30 13:04:04;;;;;;;7.05;5.40;;;22.70;74.40;;;;;;6207514;28;84275;-96
2022/12/30 13:07:34;;;;;;;7.05;4.90;;;22.70;74.40;;;;;;6199643;28;84019;-96
2022/12/30 13:10:41;;;;;;;8.32;5.28;;;22.70;74.40;;;;;;6209621;28;84055;-96
2022/12/30 13:13:51;;;;;;;7.55;5.50;;;22.70;74.40;;;;;;6209554;28;83008;-96
2022/12/30 13:16:56;;;;;;;7.47;5.28;;;22.70;74.40;;;;;;6209237;28;84034;-96
2022/12/30 13:20:08;;;;;;;7.45;5.18;;;22.70;74.40;;;;;;6209224;28;83336;-96
2022/12/30 13:23:13;;;;;;;7.70;5.50;;;22.70;74.50;;;;;;6211351;28;85401;-96
2022/12/30 13:26:15;;;;;;;6.07;4.78;;;22.70;74.40;;;;;;6186846;28;83766;-96
2022/12/30 13:29:18;;;;;;;6.60;5.00;;;22.70;74.40;;;;;;6198673;28;84028;-96
2022/12/30 13:32:30;;;;;;;6.18;4.63;;;22.70;74.40;;;;;;6207627;28;84031;-96
2022/12/30 13:35:46;;;;;;;6.20;4.75;;;22.70;74.40;;;;;;6201438;28;82991;-96
2022/12/30 13:39:05;;;;;;;5.72;4.50;;;22.70;74.30;;;;;;6206070;28;82989;-96
2022/12/30 13:42:36;;;;;;;6.28;4.50;;;22.70;74.30;;;;;;6208875;28;85824;-96
2022/12/30 13:45:46;;;;;;;5.32;4.05;;;22.70;74.40;;;;;;6208328;28;84032;-96
2022/12/30 13:48:53;;;;;;;6.20;4.50;;;22.70;74.30;;;;;;6209974;28;85670;-96
2022/12/30 13:51:59;;;;;;;5.55;4.22;;;22.70;74.20;;;;;;6197190;28;82707;-96
2022/12/30 13:55:02;;;;;;;4.75;3.95;;;22.70;74.20;;;;;;6207060;28;83746;-96
2022/12/30 13:58:08;;;;;;;5.18;4.13;;;22.70;74.20;;;;;;6196361;28;82237;-96
2022/12/30 14:01:32;;;;;;;4.50;4.03;;;22.70;74.20;;;;;;6202910;28;84256;-96
2022/12/30 14:04:45;;;;;;;4.93;4.07;;;22.70;74.30;;;;;;6211561;28;84535;-96
2022/12/30 14:07:50;;;;;;;5.28;4.13;;;22.70;74.30;;;;;;6195119;28;83082;-96
2022/12/30 14:11:10;;;;;;;5.25;4.07;;;22.70;74.30;;;;;;6196562;28;83936;-96
2022/12/30 14:14:24;;;;;;;5.22;3.78;;;22.70;74.30;;;;;;6208024;28;83793;-96
2022/12/30 14:17:30;;;;;;;5.10;3.80;;;22.70;74.30;;;;;;6208603;28;83377;-96
2022/12/30 14:20:34;;;;;;;5.22;3.80;;;22.70;74.20;;;;;;6192029;28;84014;-96
2022/12/30 14:23:39;;;;;;;5.72;3.97;;;22.70;74.30;;;;;;6189503;28;84145;-96
2022/12/30 14:26:44;;;;;;;5.32;3.83;;;22.70;74.20;;;;;;6196942;28;83698;-96
2022/12/30 14:29:46;;;;;;;6.78;4.63;;;22.70;74.20;;;;;;6191286;28;83798;-96
2022/12/30 14:32:58;;;;;;;6.25;3.95;;;22.70;74.20;;;;;;6214946;28;82586;-96
2022/12/30 14:36:08;;;;;;;5.20;3.70;;;22.70;74.20;;;;;;6203618;28;83276;-96
2022/12/30 14:39:17;;;;;;;5.65;3.30;;;22.70;74.10;;;;;;6201346;28;83038;-96
2022/12/30 14:42:32;;;;;;;5.22;3.70;;;22.70;74.20;;;;;;6208362;28;85058;-96
2022/12/30 14:45:34;;;;;;;4.47;3.50;;;22.70;74.10;;;;;;6199575;28;84668;-96
2022/12/30 14:49:01;;;;;;;4.07;3.58;;;22.70;74.10;;;;;;6211594;28;84275;-96
2022/12/30 14:52:12;;;;;;;4.18;3.35;;;22.70;74.20;;;;;;6201690;28;84781;-96
2022/12/30 14:55:18;;;;;;;8.23;4.72;;;22.70;74.20;;;;;;6203729;28;84013;-96
2022/12/30 14:58:24;;;;;;;4.90;3.65;;;22.70;74.20;;;;;;6214563;28;82853;-96
2022/12/30 15:01:26;;;;;;;4.30;3.47;;;22.70;74.20;;;;;;6208805;28;84131;-96
2022/12/30 15:04:28;;;;;;;3.80;3.30;;;22.60;74.10;;;;;;6213096;28;83052;-96
2022/12/30 15:07:34;;;;;;;4.10;3.17;;;22.70;74.20;;;;;;6203151;28;83289;-96
2022/12/30 15:10:39;;;;;;;4.43;3.20;;;22.70;74.20;;;;;;6209330;28;84054;-96
2022/12/30 15:13:48;;;;;;;4.90;3.70;;;22.70;74.20;;;;;;6207247;28;83788;-96
2022/12/30 15:17:05;;;;;;;4.32;3.35;;;22.70;74.20;;;;;;6202049;28;83988;-96
2022/12/30 15:20:28;;;;;;;3.78;3.25;;;22.70;74.20;;;;;;6218017;28;82882;-96
2022/12/30 15:23:30;;;;;;;4.10;3.30;;;22.70;74.20;;;;;;6203426;28;84527;-96
2022/12/30 15:26:34;;;;;;;5.00;3.38;;;22.70;74.20;;;;;;6203648;28;82922;-96
2022/12/30 15:29:38;;;;;;;4.03;3.30;;;22.70;74.20;;;;;;6213446;28;82314;-96
2022/12/30 15:32:40;;;;;;;3.85;3.33;;;22.70;74.20;;;;;;6199693;28;83140;-96
2022/12/30 15:35:43;;;;;;;4.32;3.20;;;22.70;74.20;;;;;;6213496;28;84213;-96
2022/12/30 15:38:45;;;;;;;3.92;3.30;;;22.70;74.10;;;;;;6205244;28;82326;-96
2022/12/30 15:41:49;;;;;;;4.72;3.47;;;22.70;74.10;;;;;;6212421;28;86385;-96
2022/12/30 15:44:58;;;;;;;3.78;3.25;;;22.70;74.10;;;;;;6204114;28;83990;-96
2022/12/30 15:48:01;;;;;;;5.70;3.08;;;22.70;74.20;;;;;;6194893;28;84562;-95
2022/12/30 15:51:08;;;;;;;6.28;3.10;;;22.70;74.40;;;;;;6208560;28;84885;-96
2022/12/30 15:54:21;;;;;;;3.70;3.15;;;22.70;74.50;;;;;;6216921;28;84303;-96
2022/12/30 15:57:27;;;;;;;4.03;2.90;;;22.70;75.20;;;;;;6206538;28;84352;-96
2022/12/30 16:00:30;;;;;;;5.45;3.10;;;22.70;75.40;;;;;;6197630;28;83721;-96
2022/12/30 16:03:35;;;;;;;5.20;3.20;;;22.70;76.60;;;;;;6196871;28;82643;-96
2022/12/30 16:06:43;;;;;;;4.88;3.45;;;22.80;76.00;;;;;;6210937;28;82150;-95
2022/12/30 16:09:47;;;;;;;5.80;3.20;;;22.70;76.20;;;;;;6200300;28;82193;-96
2022/12/30 16:12:51;;;;;;;4.47;3.28;;;22.80;76.40;;;;;;6211139;28;84305;-96
2022/12/30 16:16:08;;;;;;;4.53;3.13;;;22.80;76.40;;;;;;6209354;28;84200;-96
2022/12/30 16:19:13;;;;;;;3.80;3.20;;;22.70;76.50;;;;;;6195890;28;84775;-96
2022/12/30 16:22:20;;;;;;;4.03;3.00;;;22.80;76.80;;;;;;6203992;28;85619;-96
2022/12/30 16:25:28;;;;;;;4.47;3.10;;;22.80;78.10;;;;;;6210857;28;83819;-96
2022/12/30 16:28:36;;;;;;;4.45;3.13;;;22.80;77.30;;;;;;6208855;28;83231;-96
2022/12/30 16:31:39;;;;;;;5.15;3.53;;;22.80;77.40;;;;;;6198308;28;84833;-95
2022/12/30 16:34:42;;;;;;;5.43;3.42;;;22.80;77.60;;;;;;6210403;28;82942;-96
2022/12/30 16:37:45;;;;;;;8.65;4.07;;;22.80;77.70;;;;;;6210215;28;84441;-96
2022/12/30 16:40:48;;;;;;;4.30;3.30;;;22.80;77.80;;;;;;6209968;28;84046;-96
2022/12/30 16:43:51;;;;;;;4.65;3.50;;;22.80;77.90;;;;;;6209093;28;83274;-95
2022/12/30 16:46:55;;;;;;;4.63;3.22;;;22.80;77.90;;;;;;6211088;28;85206;-96
2022/12/30 16:49:57;;;;;;;4.90;3.20;;;22.80;78.00;;;;;;6209701;28;83970;-95
2022/12/30 16:52:59;;;;;;;4.00;3.33;;;22.80;78.10;;;;;;6214415;28;84151;-96
2022/12/30 16:56:01;;;;;;;3.92;3.00;;;22.80;78.30;;;;;;6214303;28;83725;-95
2022/12/30 16:59:03;;;;;;;6.35;3.33;;;22.80;78.40;;;;;;6214142;28;83213;-96
2022/12/30 17:02:16;;;;;;;7.65;3.20;;;22.90;78.70;;;;;;6214649;28;84248;-96
2022/12/30 17:05:21;;;;;;;3.83;2.97;;;22.80;78.60;;;;;;6214075;28;82814;-96
2022/12/30 17:08:25;;;;;;;5.68;3.08;;;22.80;78.60;;;;;;6213516;28;83676;-96
2022/12/30 17:11:30;;;;;;;5.25;3.35;;;22.80;78.90;;;;;;6214187;28;82245;-96
2022/12/30 17:14:34;;;;;;;5.15;3.38;;;22.80;78.90;;;;;;6213371;28;83849;-95
2022/12/30 17:17:47;;;;;;;6.00;3.50;;;22.80;79.20;;;;;;6215082;28;84351;-96
2022/12/30 17:34:40;;;;;;;5.28;3.78;;;22.80;78.40;;;;;;6083157;28;80687;-65
2022/12/30 17:37:42;;;;;;;4.13;3.55;;;22.80;81.10;;;;;;6076651;28;81092;-68
2022/12/30 17:40:44;;;;;;;7.40;3.40;;;22.70;81.00;;;;;;6082436;28;82821;-68
2022/12/30 17:43:47;;;;;;;5.90;3.38;;;22.80;81.30;;;;;;6082713;28;82429;-68
2022/12/30 17:46:49;;;;;;;6.90;3.97;;;22.70;81.60;;;;;;6084824;28;82205;-68
2022/12/30 17:49:52;;;;;;;5.88;3.95;;;22.70;84.70;;;;;;6079780;28;82424;-68
2022/12/30 17:52:54;;;;;;;6.28;4.05;;;22.80;85.80;;;;;;6072300;28;81200;-70
2022/12/30 17:55:56;;;;;;;6.03;4.97;;;22.80;85.70;;;;;;6088058;28;82303;-68
2022/12/30 17:58:59;;;;;;;7.90;6.32;;;22.80;87.90;;;;;;6074332;28;82479;-68
2022/12/30 18:02:01;;;;;;;12.95;7.47;;;22.80;89.90;;;;;;6084013;28;82403;-68
2022/12/30 18:05:07;;;;;;;11.27;7.50;;;22.90;90.60;;;;;;6073849;28;82256;-67
2022/12/30 18:08:09;;;;;;;9.68;7.05;;;23.00;86.60;;;;;;6079227;28;82343;-69
2022/12/30 18:11:14;;;;;;;8.18;7.35;;;23.10;85.20;;;;;;6081514;28;82220;-68
2022/12/30 18:14:22;;;;;;;8.73;7.65;;;23.10;84.10;;;;;;6072534;28;81142;-68
2022/12/30 18:17:24;;;;;;;9.25;8.10;;;23.20;83.60;;;;;;6082878;28;81202;-67
2022/12/30 18:20:27;;;;;;;9.15;8.15;;;23.10;83.30;;;;;;6066027;28;82237;-68
2022/12/30 18:23:29;;;;;;;9.00;8.10;;;23.10;83.10;;;;;;6077289;28;82603;-67
2022/12/30 18:26:31;;;;;;;9.30;8.40;;;23.10;82.90;;;;;;6072397;28;82528;-67
2022/12/30 18:29:34;;;;;;;9.27;8.15;;;23.10;82.90;;;;;;6068957;28;82467;-68
2022/12/30 18:32:37;;;;;;;9.00;8.15;;;23.20;82.80;;;;;;6083346;28;81221;-67
2022/12/30 18:35:40;;;;;;;9.23;8.48;;;23.10;82.70;;;;;;6057962;28;82287;-68
2022/12/30 18:38:43;;;;;;;8.88;8.07;;;23.20;82.80;;;;;;6054323;28;82430;-69
2022/12/30 18:41:45;;;;;;;9.10;8.20;;;23.20;83.00;;;;;;6056122;28;82319;-69
2022/12/30 18:44:48;;;;;;;8.93;8.13;;;23.40;82.40;;;;;;6059132;28;82345;-69
2022/12/30 18:47:50;;;;;;;8.55;7.75;;;23.60;81.60;;;;;;6055375;28;82526;-69
2022/12/30 18:51:00;;;;;;;9.18;8.38;;;23.70;81.10;;;;;;6048965;28;82327;-69
2022/12/30 18:54:05;;;;;;;9.20;8.30;;;23.80;80.70;;;;;;6054511;28;81631;-69
2022/12/30 18:57:07;;;;;;;8.77;7.97;;;23.80;80.50;;;;;;6073071;28;82420;-68
2022/12/30 19:00:11;;;;;;;8.20;7.50;;;23.80;80.30;;;;;;6064273;28;81243;-68
2022/12/30 19:03:13;;;;;;;7.78;7.07;;;23.80;80.30;;;;;;6067386;28;82450;-68
2022/12/30 19:06:17;;;;;;;8.38;7.57;;;23.80;80.30;;;;;;6054041;28;82413;-68
2022/12/30 19:09:21;;;;;;;8.02;7.22;;;23.70;80.30;;;;;;6056246;28;82634;-68
2022/12/30 19:12:23;;;;;;;8.13;7.32;;;23.70;80.50;;;;;;6050634;28;82498;-70
2022/12/30 19:15:25;;;;;;;8.38;7.65;;;23.70;80.60;;;;;;6062017;28;82352;-68
2022/12/30 19:18:27;;;;;;;10.07;9.07;;;23.60;80.10;;;;;;6060770;28;82250;-67
2022/12/30 19:21:33;;;;;;;9.80;8.85;;;23.60;80.70;;;;;;6062815;28;82785;-67
2022/12/30 19:24:35;;;;;;;8.88;8.15;;;23.60;81.10;;;;;;6059798;28;81527;-68
2022/12/30 19:27:38;;;;;;;9.18;8.27;;;23.50;81.20;;;;;;6059876;28;82356;-68
2022/12/30 19:30:40;;;;;;;8.77;7.88;;;23.50;81.30;;;;;;6057950;28;82378;-68
2022/12/30 19:33:43;;;;;;;9.13;8.35;;;23.40;81.30;;;;;;6053338;28;81613;-68
2022/12/30 19:36:47;;;;;;;8.77;8.00;;;23.40;81.50;;;;;;6066795;28;82287;-68
2022/12/30 19:39:49;;;;;;;10.75;9.57;;;23.40;81.50;;;;;;6063623;28;82347;-69
2022/12/30 19:42:51;;;;;;;12.07;10.60;;;23.40;81.60;;;;;;6061464;28;80928;-69
2022/12/30 19:45:53;;;;;;;11.88;10.77;;;23.40;81.70;;;;;;6061102;28;84760;-68
2022/12/30 19:48:56;;;;;;;11.52;10.43;;;23.40;82.20;;;;;;6065801;28;82816;-70
2022/12/30 19:51:59;;;;;;;10.90;9.80;;;23.40;82.20;;;;;;6073771;28;82812;-72
2022/12/30 19:55:01;;;;;;;10.77;9.73;;;23.40;82.30;;;;;;6065879;28;82260;-70
2022/12/30 19:58:04;;;;;;;13.13;9.48;;;23.40;82.40;;;;;;6056543;28;82386;-68
2022/12/30 20:01:08;;;;;;;11.15;9.88;;;23.30;82.00;;;;;;6049539;28;84449;-70
2022/12/30 20:04:12;;;;;;;20.60;15.30;;;23.40;81.90;;;;;;6064082;28;82148;-69
2022/12/30 20:07:16;;;;;;;41.90;26.02;;;23.30;81.30;;;;;;6057707;28;83678;-69
2022/12/30 20:10:18;;;;;;;54.95;27.88;;;23.30;78.70;;;;;;6066971;28;82829;-69
2022/12/30 20:13:20;;;;;;;53.40;29.42;;;23.30;77.20;;;;;;6038776;28;83957;-69
2022/12/30 20:16:24;;;;;;;52.90;28.33;;;23.20;77.70;;;;;;6042700;28;84225;-69
2022/12/30 20:19:27;;;;;;;49.70;28.77;;;23.20;78.70;;;;;;6048596;28;84516;-68
2022/12/30 20:22:31;;;;;;;46.30;26.85;;;23.20;79.50;;;;;;6036593;28;85073;-69
2022/12/30 20:25:33;;;;;;;47.65;26.42;;;23.10;79.80;;;;;;6052655;28;84109;-69
2022/12/30 20:28:36;;;;;;;43.55;25.67;;;23.10;80.00;;;;;;6051695;28;83139;-68
2022/12/30 20:31:40;;;;;;;42.38;24.50;;;23.10;80.30;;;;;;6052222;28;82953;-69
2022/12/30 20:34:43;;;;;;;41.42;23.80;;;23.10;80.50;;;;;;6064622;28;84374;-68
2022/12/30 20:37:47;;;;;;;37.60;23.17;;;23.10;80.00;;;;;;6054728;28;84098;-69
2022/12/30 20:40:50;;;;;;;43.40;24.20;;;23.10;80.10;;;;;;6061273;28;84067;-69
2022/12/30 20:43:53;;;;;;;39.17;21.40;;;23.10;80.30;;;;;;6039188;28;84826;-69
2022/12/30 20:46:55;;;;;;;38.65;22.08;;;23.00;80.10;;;;;;6037699;28;85699;-69
2022/12/30 20:49:58;;;;;;;35.47;21.13;;;23.00;80.10;;;;;;6042181;28;85664;-69
2022/12/30 20:53:01;;;;;;;34.13;19.83;;;23.00;80.30;;;;;;6045862;28;84272;-69
2022/12/30 20:56:06;;;;;;;33.92;20.45;;;23.00;80.20;;;;;;6052786;28;84982;-69
2022/12/30 20:59:09;;;;;;;33.65;19.63;;;23.00;80.10;;;;;;6041453;28;84293;-69
2022/12/30 21:02:12;;;;;;;33.55;19.13;;;23.00;80.10;;;;;;6049463;28;84642;-69
2022/12/30 21:05:14;;;;;;;30.48;18.63;;;23.00;80.20;;;;;;6037898;28;84296;-69
2022/12/30 21:08:17;;;;;;;28.77;17.38;;;23.00;80.20;;;;;;6070173;28;84985;-68
2022/12/30 21:11:20;;;;;;;26.67;17.02;;;23.00;79.80;;;;;;6052443;28;83766;-69
2022/12/30 21:14:22;;;;;;;27.08;16.83;;;23.00;79.90;;;;;;6036817;28;83932;-69
2022/12/30 21:17:24;;;;;;;26.55;17.00;;;23.00;79.60;;;;;;6036614;28;84588;-68
2022/12/30 21:20:27;;;;;;;25.73;15.60;;;23.10;79.60;;;;;;6039111;28;84906;-69
2022/12/30 21:23:31;;;;;;;24.30;16.00;;;23.00;79.50;;;;;;6054442;28;83917;-69
2022/12/30 21:26:34;;;;;;;25.00;15.65;;;23.10;79.40;;;;;;6043465;28;82845;-69
